sensor_id;sensor_type;location;lat;lon;timestamp;P1;durP1;ratioP1;P2;durP2;ratioP2
19038;SDS011;9652;49.014;12.052;2023-08-06T00:00:02;7.03;;;6.33;;
19038;SDS011;9652;49.014;12.052;2023-08-06T00:02:34;7.73;;;6.93;;
19038;SDS011;9652;49.014;12.052;2023-08-06T00:05:01;7.37;;;6.60;;
19038;SDS011;9652;49.014;12.052;2023-08-06T00:07:28;9.97;;;7.00;;
19038;SDS011;9652;49.014;12.052;2023-08-06T00:09:56;9.47;;;6.63;;
19038;SDS011;9652;49.014;12.052;2023-08-06T00:12:25;7.13;;;6.40;;
19038;SDS011;9652;49.014;12.052;2023-08-06T00:14:52;9.27;;;6.97;;
19038;SDS011;9652;49.014;12.052;2023-08-06T00:17:19;7.53;;;6.73;;
19038;SDS011;9652;49.014;12.052;2023-08-06T00:19:47;8.70;;;7.47;;
19038;SDS011;9652;49.014;12.052;2023-08-06T00:22:14;7.77;;;6.13;;
19038;SDS011;9652;49.014;12.052;2023-08-06T00:24:41;8.27;;;7.40;;
19038;SDS011;9652;49.014;12.052;2023-08-06T00:27:08;7.27;;;6.57;;
19038;SDS011;9652;49.014;12.052;2023-08-06T00:29:36;6.93;;;6.23;;
19038;SDS011;9652;49.014;12.052;2023-08-06T00:32:03;7.77;;;6.37;;
19038;SDS011;9652;49.014;12.052;2023-08-06T00:34:31;7.27;;;5.90;;
19038;SDS011;9652;49.014;12.052;2023-08-06T00:36:58;7.43;;;6.07;;
19038;SDS011;9652;49.014;12.052;2023-08-06T00:39:25;8.00;;;5.97;;
19038;SDS011;9652;49.014;12.052;2023-08-06T00:41:52;5.97;;;5.37;;
19038;SDS011;9652;49.014;12.052;2023-08-06T00:44:19;5.97;;;5.20;;
19038;SDS011;9652;49.014;12.052;2023-08-06T00:46:48;5.40;;;4.90;;
19038;SDS011;9652;49.014;12.052;2023-08-06T00:49:15;6.83;;;5.80;;
19038;SDS011;9652;49.014;12.052;2023-08-06T00:51:43;7.70;;;5.10;;
19038;SDS011;9652;49.014;12.052;2023-08-06T00:54:10;5.80;;;5.20;;
19038;SDS011;9652;49.014;12.052;2023-08-06T00:56:37;6.73;;;6.03;;
19038;SDS011;9652;49.014;12.052;2023-08-06T00:59:05;5.70;;;5.10;;
19038;SDS011;9652;49.014;12.052;2023-08-06T01:01:32;6.27;;;4.87;;
19038;SDS011;9652;49.014;12.052;2023-08-06T01:04:01;6.17;;;5.03;;
19038;SDS011;9652;49.014;12.052;2023-08-06T01:06:33;5.57;;;5.07;;
19038;SDS011;9652;49.014;12.052;2023-08-06T01:09:11;10.23;;;6.07;;
19038;SDS011;9652;49.014;12.052;2023-08-06T01:11:54;5.07;;;4.57;;
19038;SDS011;9652;49.014;12.052;2023-08-06T01:14:33;5.33;;;4.83;;
19038;SDS011;9652;49.014;12.052;2023-08-06T01:17:12;6.13;;;5.53;;
19038;SDS011;9652;49.014;12.052;2023-08-06T01:19:41;7.40;;;5.13;;
19038;SDS011;9652;49.014;12.052;2023-08-06T01:22:10;5.23;;;4.73;;
19038;SDS011;9652;49.014;12.052;2023-08-06T01:24:37;5.00;;;4.60;;
19038;SDS011;9652;49.014;12.052;2023-08-06T01:27:06;5.10;;;4.57;;
19038;SDS011;9652;49.014;12.052;2023-08-06T01:29:38;4.23;;;3.90;;
19038;SDS011;9652;49.014;12.052;2023-08-06T01:32:13;4.27;;;3.33;;
19038;SDS011;9652;49.014;12.052;2023-08-06T01:34:43;3.33;;;3.03;;
19038;SDS011;9652;49.014;12.052;2023-08-06T01:37:15;3.90;;;2.90;;
19038;SDS011;9652;49.014;12.052;2023-08-06T01:39:42;2.87;;;2.60;;
19038;SDS011;9652;49.014;12.052;2023-08-06T01:42:09;2.70;;;2.30;;
19038;SDS011;9652;49.014;12.052;2023-08-06T01:44:37;2.10;;;1.90;;
19038;SDS011;9652;49.014;12.052;2023-08-06T01:47:04;1.93;;;1.83;;
19038;SDS011;9652;49.014;12.052;2023-08-06T01:49:32;2.27;;;2.07;;
19038;SDS011;9652;49.014;12.052;2023-08-06T01:51:59;2.27;;;2.07;;
19038;SDS011;9652;49.014;12.052;2023-08-06T01:54:27;2.33;;;2.10;;
19038;SDS011;9652;49.014;12.052;2023-08-06T01:56:54;2.80;;;2.20;;
19038;SDS011;9652;49.014;12.052;2023-08-06T01:59:23;2.00;;;1.80;;
19038;SDS011;9652;49.014;12.052;2023-08-06T02:01:50;1.70;;;1.60;;
19038;SDS011;9652;49.014;12.052;2023-08-06T02:04:18;2.57;;;2.20;;
19038;SDS011;9652;49.014;12.052;2023-08-06T02:06:45;2.07;;;1.80;;
19038;SDS011;9652;49.014;12.052;2023-08-06T02:09:12;7.40;;;2.27;;
19038;SDS011;9652;49.014;12.052;2023-08-06T02:11:40;3.03;;;2.17;;
19038;SDS011;9652;49.014;12.052;2023-08-06T02:14:07;2.53;;;1.93;;
19038;SDS011;9652;49.014;12.052;2023-08-06T02:16:34;2.10;;;1.90;;
19038;SDS011;9652;49.014;12.052;2023-08-06T02:19:01;2.07;;;1.90;;
19038;SDS011;9652;49.014;12.052;2023-08-06T02:21:28;2.50;;;2.07;;
19038;SDS011;9652;49.014;12.052;2023-08-06T02:23:55;3.13;;;1.93;;
19038;SDS011;9652;49.014;12.052;2023-08-06T02:26:22;2.83;;;2.17;;
19038;SDS011;9652;49.014;12.052;2023-08-06T02:28:51;2.40;;;2.20;;
19038;SDS011;9652;49.014;12.052;2023-08-06T02:31:18;2.37;;;2.17;;
19038;SDS011;9652;49.014;12.052;2023-08-06T02:33:45;2.20;;;1.93;;
19038;SDS011;9652;49.014;12.052;2023-08-06T02:36:12;2.50;;;2.30;;
19038;SDS011;9652;49.014;12.052;2023-08-06T02:38:39;2.10;;;1.90;;
19038;SDS011;9652;49.014;12.052;2023-08-06T02:41:07;2.43;;;2.23;;
19038;SDS011;9652;49.014;12.052;2023-08-06T02:43:34;2.37;;;2.10;;
19038;SDS011;9652;49.014;12.052;2023-08-06T02:46:02;2.30;;;2.07;;
19038;SDS011;9652;49.014;12.052;2023-08-06T02:48:30;2.10;;;1.90;;
19038;SDS011;9652;49.014;12.052;2023-08-06T02:50:57;2.67;;;2.40;;
19038;SDS011;9652;49.014;12.052;2023-08-06T02:53:27;3.33;;;2.03;;
19038;SDS011;9652;49.014;12.052;2023-08-06T02:55:54;1.93;;;1.83;;
19038;SDS011;9652;49.014;12.052;2023-08-06T02:58:29;1.93;;;1.83;;
19038;SDS011;9652;49.014;12.052;2023-08-06T03:01:06;1.97;;;1.80;;
19038;SDS011;9652;49.014;12.052;2023-08-06T03:03:46;2.80;;;2.07;;
19038;SDS011;9652;49.014;12.052;2023-08-06T03:06:20;2.10;;;1.90;;
19038;SDS011;9652;49.014;12.052;2023-08-06T03:08:51;1.70;;;1.60;;
19038;SDS011;9652;49.014;12.052;2023-08-06T03:11:18;2.03;;;1.93;;
19038;SDS011;9652;49.014;12.052;2023-08-06T03:13:46;1.80;;;1.70;;
19038;SDS011;9652;49.014;12.052;2023-08-06T03:16:15;1.90;;;1.80;;
19038;SDS011;9652;49.014;12.052;2023-08-06T03:18:43;2.30;;;2.10;;
19038;SDS011;9652;49.014;12.052;2023-08-06T03:21:10;2.43;;;1.97;;
19038;SDS011;9652;49.014;12.052;2023-08-06T03:23:37;2.23;;;2.03;;
19038;SDS011;9652;49.014;12.052;2023-08-06T03:26:05;1.97;;;1.83;;
19038;SDS011;9652;49.014;12.052;2023-08-06T03:28:32;2.23;;;2.07;;
19038;SDS011;9652;49.014;12.052;2023-08-06T03:31:00;2.40;;;2.20;;
19038;SDS011;9652;49.014;12.052;2023-08-06T03:33:37;2.67;;;2.37;;
19038;SDS011;9652;49.014;12.052;2023-08-06T03:36:09;2.40;;;2.20;;
19038;SDS011;9652;49.014;12.052;2023-08-06T03:38:36;2.00;;;1.87;;
19038;SDS011;9652;49.014;12.052;2023-08-06T03:41:06;2.43;;;2.23;;
19038;SDS011;9652;49.014;12.052;2023-08-06T03:43:33;1.87;;;1.73;;
19038;SDS011;9652;49.014;12.052;2023-08-06T03:46:03;3.13;;;2.23;;
19038;SDS011;9652;49.014;12.052;2023-08-06T03:48:31;1.90;;;1.80;;
19038;SDS011;9652;49.014;12.052;2023-08-06T03:51:00;2.00;;;1.80;;
19038;SDS011;9652;49.014;12.052;2023-08-06T03:53:27;2.10;;;1.90;;
19038;SDS011;9652;49.014;12.052;2023-08-06T03:55:55;2.40;;;2.20;;
19038;SDS011;9652;49.014;12.052;2023-08-06T03:58:25;2.07;;;1.97;;
19038;SDS011;9652;49.014;12.052;2023-08-06T04:00:57;2.60;;;2.40;;
19038;SDS011;9652;49.014;12.052;2023-08-06T04:03:28;3.90;;;2.00;;
19038;SDS011;9652;49.014;12.052;2023-08-06T04:05:56;3.13;;;1.90;;
19038;SDS011;9652;49.014;12.052;2023-08-06T04:08:24;2.30;;;2.10;;
19038;SDS011;9652;49.014;12.052;2023-08-06T04:10:51;2.23;;;2.03;;
19038;SDS011;9652;49.014;12.052;2023-08-06T04:13:19;2.30;;;2.10;;
19038;SDS011;9652;49.014;12.052;2023-08-06T04:15:46;2.33;;;2.13;;
19038;SDS011;9652;49.014;12.052;2023-08-06T04:18:13;1.97;;;1.87;;
19038;SDS011;9652;49.014;12.052;2023-08-06T04:20:43;5.27;;;2.13;;
19038;SDS011;9652;49.014;12.052;2023-08-06T04:23:11;1.80;;;1.70;;
19038;SDS011;9652;49.014;12.052;2023-08-06T04:25:40;3.60;;;2.60;;
19038;SDS011;9652;49.014;12.052;2023-08-06T04:28:08;2.40;;;2.20;;
19038;SDS011;9652;49.014;12.052;2023-08-06T04:30:37;3.30;;;2.00;;
19038;SDS011;9652;49.014;12.052;2023-08-06T04:33:04;2.13;;;1.93;;
19038;SDS011;9652;49.014;12.052;2023-08-06T04:35:33;2.07;;;1.87;;
19038;SDS011;9652;49.014;12.052;2023-08-06T04:38:00;1.87;;;1.77;;
19038;SDS011;9652;49.014;12.052;2023-08-06T04:40:27;2.10;;;2.00;;
19038;SDS011;9652;49.014;12.052;2023-08-06T04:42:56;2.40;;;1.80;;
19038;SDS011;9652;49.014;12.052;2023-08-06T04:45:23;2.50;;;1.90;;
19038;SDS011;9652;49.014;12.052;2023-08-06T04:47:50;3.23;;;1.73;;
19038;SDS011;9652;49.014;12.052;2023-08-06T04:50:17;3.17;;;2.00;;
19038;SDS011;9652;49.014;12.052;2023-08-06T04:52:45;1.87;;;1.77;;
19038;SDS011;9652;49.014;12.052;2023-08-06T04:55:12;5.00;;;1.80;;
19038;SDS011;9652;49.014;12.052;2023-08-06T04:57:39;1.90;;;1.63;;
19038;SDS011;9652;49.014;12.052;2023-08-06T05:00:08;3.73;;;1.90;;
19038;SDS011;9652;49.014;12.052;2023-08-06T05:02:35;2.57;;;1.90;;
19038;SDS011;9652;49.014;12.052;2023-08-06T05:05:04;1.97;;;1.77;;
19038;SDS011;9652;49.014;12.052;2023-08-06T05:07:31;1.70;;;1.60;;
19038;SDS011;9652;49.014;12.052;2023-08-06T05:09:58;1.90;;;1.80;;
19038;SDS011;9652;49.014;12.052;2023-08-06T05:12:25;2.37;;;2.07;;
19038;SDS011;9652;49.014;12.052;2023-08-06T05:14:52;2.37;;;1.40;;
19038;SDS011;9652;49.014;12.052;2023-08-06T05:17:21;2.03;;;1.90;;
19038;SDS011;9652;49.014;12.052;2023-08-06T05:19:49;3.60;;;1.80;;
19038;SDS011;9652;49.014;12.052;2023-08-06T05:22:16;2.63;;;1.87;;
19038;SDS011;9652;49.014;12.052;2023-08-06T05:24:43;1.77;;;1.67;;
19038;SDS011;9652;49.014;12.052;2023-08-06T05:27:10;1.80;;;1.70;;
19038;SDS011;9652;49.014;12.052;2023-08-06T05:29:37;3.07;;;2.07;;
19038;SDS011;9652;49.014;12.052;2023-08-06T05:32:04;1.87;;;1.77;;
19038;SDS011;9652;49.014;12.052;2023-08-06T05:34:33;1.70;;;1.60;;
19038;SDS011;9652;49.014;12.052;2023-08-06T05:37:00;2.00;;;1.80;;
19038;SDS011;9652;49.014;12.052;2023-08-06T05:39:27;2.00;;;1.90;;
19038;SDS011;9652;49.014;12.052;2023-08-06T05:41:54;1.60;;;1.50;;
19038;SDS011;9652;49.014;12.052;2023-08-06T05:44:22;1.97;;;1.87;;
19038;SDS011;9652;49.014;12.052;2023-08-06T05:46:50;1.83;;;1.70;;
19038;SDS011;9652;49.014;12.052;2023-08-06T05:49:18;2.03;;;1.90;;
19038;SDS011;9652;49.014;12.052;2023-08-06T05:51:46;2.00;;;1.90;;
19038;SDS011;9652;49.014;12.052;2023-08-06T05:54:14;2.20;;;1.93;;
19038;SDS011;9652;49.014;12.052;2023-08-06T05:56:41;1.73;;;1.63;;
19038;SDS011;9652;49.014;12.052;2023-08-06T05:59:08;1.63;;;1.53;;
19038;SDS011;9652;49.014;12.052;2023-08-06T06:01:35;2.00;;;1.50;;
19038;SDS011;9652;49.014;12.052;2023-08-06T06:04:02;3.00;;;1.43;;
19038;SDS011;9652;49.014;12.052;2023-08-06T06:06:29;1.60;;;1.50;;
19038;SDS011;9652;49.014;12.052;2023-08-06T06:08:58;1.80;;;1.70;;
19038;SDS011;9652;49.014;12.052;2023-08-06T06:11:25;1.53;;;1.37;;
19038;SDS011;9652;49.014;12.052;2023-08-06T06:13:52;1.57;;;1.47;;
19038;SDS011;9652;49.014;12.052;2023-08-06T06:16:19;1.67;;;1.57;;
19038;SDS011;9652;49.014;12.052;2023-08-06T06:18:46;2.00;;;1.80;;
19038;SDS011;9652;49.014;12.052;2023-08-06T06:21:13;1.77;;;1.67;;
19038;SDS011;9652;49.014;12.052;2023-08-06T06:23:40;2.30;;;1.80;;
19038;SDS011;9652;49.014;12.052;2023-08-06T06:26:09;2.87;;;1.57;;
19038;SDS011;9652;49.014;12.052;2023-08-06T06:28:36;2.80;;;1.70;;
19038;SDS011;9652;49.014;12.052;2023-08-06T06:31:03;1.90;;;1.80;;
19038;SDS011;9652;49.014;12.052;2023-08-06T06:33:30;2.73;;;1.80;;
19038;SDS011;9652;49.014;12.052;2023-08-06T06:35:57;3.63;;;2.40;;
19038;SDS011;9652;49.014;12.052;2023-08-06T06:38:24;2.20;;;2.00;;
19038;SDS011;9652;49.014;12.052;2023-08-06T06:40:54;2.90;;;2.13;;
19038;SDS011;9652;49.014;12.052;2023-08-06T06:43:24;2.27;;;2.07;;
19038;SDS011;9652;49.014;12.052;2023-08-06T06:45:52;2.33;;;2.13;;
19038;SDS011;9652;49.014;12.052;2023-08-06T06:48:20;2.40;;;2.20;;
19038;SDS011;9652;49.014;12.052;2023-08-06T06:50:47;2.50;;;2.30;;
19038;SDS011;9652;49.014;12.052;2023-08-06T06:53:15;2.27;;;2.07;;
19038;SDS011;9652;49.014;12.052;2023-08-06T06:55:42;2.37;;;2.17;;
19038;SDS011;9652;49.014;12.052;2023-08-06T06:58:09;2.90;;;2.47;;
19038;SDS011;9652;49.014;12.052;2023-08-06T07:00:38;3.77;;;2.80;;
19038;SDS011;9652;49.014;12.052;2023-08-06T07:03:05;2.83;;;2.53;;
19038;SDS011;9652;49.014;12.052;2023-08-06T07:05:32;2.80;;;2.60;;
19038;SDS011;9652;49.014;12.052;2023-08-06T07:07:59;2.70;;;2.50;;
19038;SDS011;9652;49.014;12.052;2023-08-06T07:10:26;2.53;;;2.33;;
19038;SDS011;9652;49.014;12.052;2023-08-06T07:12:53;3.63;;;2.33;;
19038;SDS011;9652;49.014;12.052;2023-08-06T07:15:20;2.87;;;2.57;;
19038;SDS011;9652;49.014;12.052;2023-08-06T07:17:49;2.63;;;2.40;;
19038;SDS011;9652;49.014;12.052;2023-08-06T07:20:16;2.90;;;2.30;;
19038;SDS011;9652;49.014;12.052;2023-08-06T07:22:43;2.37;;;2.17;;
19038;SDS011;9652;49.014;12.052;2023-08-06T07:25:10;2.53;;;2.00;;
19038;SDS011;9652;49.014;12.052;2023-08-06T07:27:38;2.50;;;2.30;;
19038;SDS011;9652;49.014;12.052;2023-08-06T07:30:06;2.50;;;2.30;;
19038;SDS011;9652;49.014;12.052;2023-08-06T07:32:34;2.17;;;1.97;;
19038;SDS011;9652;49.014;12.052;2023-08-06T07:35:02;2.23;;;1.93;;
19038;SDS011;9652;49.014;12.052;2023-08-06T07:37:30;1.70;;;1.60;;
19038;SDS011;9652;49.014;12.052;2023-08-06T07:39:58;2.13;;;1.50;;
19038;SDS011;9652;49.014;12.052;2023-08-06T07:42:25;1.70;;;1.57;;
19038;SDS011;9652;49.014;12.052;2023-08-06T07:44:52;2.83;;;1.90;;
19038;SDS011;9652;49.014;12.052;2023-08-06T07:47:21;1.87;;;1.70;;
19038;SDS011;9652;49.014;12.052;2023-08-06T07:49:48;1.37;;;1.27;;
19038;SDS011;9652;49.014;12.052;2023-08-06T07:52:16;2.33;;;1.50;;
19038;SDS011;9652;49.014;12.052;2023-08-06T07:54:43;1.90;;;1.40;;
19038;SDS011;9652;49.014;12.052;2023-08-06T07:57:10;2.17;;;1.30;;
19038;SDS011;9652;49.014;12.052;2023-08-06T07:59:38;1.20;;;1.10;;
19038;SDS011;9652;49.014;12.052;2023-08-06T08:02:06;1.00;;;0.90;;
19038;SDS011;9652;49.014;12.052;2023-08-06T08:04:33;1.73;;;1.20;;
19038;SDS011;9652;49.014;12.052;2023-08-06T08:07:00;1.10;;;1.00;;
19038;SDS011;9652;49.014;12.052;2023-08-06T08:09:28;1.83;;;0.90;;
19038;SDS011;9652;49.014;12.052;2023-08-06T08:11:55;1.53;;;1.20;;
19038;SDS011;9652;49.014;12.052;2023-08-06T08:14:24;1.40;;;1.30;;
19038;SDS011;9652;49.014;12.052;2023-08-06T08:16:51;1.83;;;0.83;;
19038;SDS011;9652;49.014;12.052;2023-08-06T08:19:18;1.60;;;1.40;;
19038;SDS011;9652;49.014;12.052;2023-08-06T08:21:45;1.60;;;0.97;;
19038;SDS011;9652;49.014;12.052;2023-08-06T08:24:12;1.40;;;1.20;;
19038;SDS011;9652;49.014;12.052;2023-08-06T08:26:40;1.23;;;1.13;;
19038;SDS011;9652;49.014;12.052;2023-08-06T08:29:08;1.47;;;1.30;;
19038;SDS011;9652;49.014;12.052;2023-08-06T08:31:35;2.07;;;1.20;;
19038;SDS011;9652;49.014;12.052;2023-08-06T08:34:04;1.40;;;1.30;;
19038;SDS011;9652;49.014;12.052;2023-08-06T08:36:31;1.53;;;1.33;;
19038;SDS011;9652;49.014;12.052;2023-08-06T08:38:58;1.40;;;1.30;;
19038;SDS011;9652;49.014;12.052;2023-08-06T08:41:27;1.43;;;1.10;;
19038;SDS011;9652;49.014;12.052;2023-08-06T08:43:57;0.97;;;0.87;;
19038;SDS011;9652;49.014;12.052;2023-08-06T08:46:26;1.30;;;1.20;;
19038;SDS011;9652;49.014;12.052;2023-08-06T08:48:56;1.70;;;1.40;;
19038;SDS011;9652;49.014;12.052;2023-08-06T08:51:26;2.30;;;1.00;;
19038;SDS011;9652;49.014;12.052;2023-08-06T08:53:54;1.37;;;1.00;;
19038;SDS011;9652;49.014;12.052;2023-08-06T08:56:22;2.70;;;1.50;;
19038;SDS011;9652;49.014;12.052;2023-08-06T08:58:50;1.27;;;1.10;;
19038;SDS011;9652;49.014;12.052;2023-08-06T09:01:19;1.90;;;0.93;;
19038;SDS011;9652;49.014;12.052;2023-08-06T09:03:48;1.27;;;0.90;;
19038;SDS011;9652;49.014;12.052;2023-08-06T09:06:16;1.33;;;1.00;;
19038;SDS011;9652;49.014;12.052;2023-08-06T09:08:47;0.87;;;0.70;;
19038;SDS011;9652;49.014;12.052;2023-08-06T09:11:24;1.13;;;0.90;;
19038;SDS011;9652;49.014;12.052;2023-08-06T09:13:53;0.93;;;0.87;;
19038;SDS011;9652;49.014;12.052;2023-08-06T09:16:23;0.60;;;0.60;;
19038;SDS011;9652;49.014;12.052;2023-08-06T09:18:51;2.50;;;0.73;;
19038;SDS011;9652;49.014;12.052;2023-08-06T09:21:18;0.83;;;0.80;;
19038;SDS011;9652;49.014;12.052;2023-08-06T09:23:45;1.03;;;0.90;;
19038;SDS011;9652;49.014;12.052;2023-08-06T09:26:12;0.73;;;0.70;;
19038;SDS011;9652;49.014;12.052;2023-08-06T09:28:39;1.40;;;0.80;;
19038;SDS011;9652;49.014;12.052;2023-08-06T09:31:08;0.93;;;0.70;;
19038;SDS011;9652;49.014;12.052;2023-08-06T09:33:37;1.03;;;0.80;;
19038;SDS011;9652;49.014;12.052;2023-08-06T09:36:08;0.90;;;0.73;;
19038;SDS011;9652;49.014;12.052;2023-08-06T09:38:37;0.90;;;0.60;;
19038;SDS011;9652;49.014;12.052;2023-08-06T09:41:06;0.80;;;0.50;;
19038;SDS011;9652;49.014;12.052;2023-08-06T09:43:39;0.90;;;0.70;;
19038;SDS011;9652;49.014;12.052;2023-08-06T09:46:11;1.03;;;0.57;;
19038;SDS011;9652;49.014;12.052;2023-08-06T09:48:42;0.50;;;0.50;;
19038;SDS011;9652;49.014;12.052;2023-08-06T09:51:11;0.50;;;0.50;;
19038;SDS011;9652;49.014;12.052;2023-08-06T09:53:40;1.47;;;0.50;;
19038;SDS011;9652;49.014;12.052;2023-08-06T09:56:08;2.10;;;0.50;;
19038;SDS011;9652;49.014;12.052;2023-08-06T09:58:39;0.87;;;0.27;;
19038;SDS011;9652;49.014;12.052;2023-08-06T10:01:08;1.10;;;0.57;;
19038;SDS011;9652;49.014;12.052;2023-08-06T10:03:37;0.57;;;0.50;;
19038;SDS011;9652;49.014;12.052;2023-08-06T10:06:07;0.93;;;0.60;;
19038;SDS011;9652;49.014;12.052;2023-08-06T10:08:35;2.63;;;0.43;;
19038;SDS011;9652;49.014;12.052;2023-08-06T10:11:03;0.53;;;0.53;;
19038;SDS011;9652;49.014;12.052;2023-08-06T10:13:31;0.77;;;0.60;;
19038;SDS011;9652;49.014;12.052;2023-08-06T10:16:00;0.70;;;0.50;;
19038;SDS011;9652;49.014;12.052;2023-08-06T10:18:29;0.80;;;0.63;;
19038;SDS011;9652;49.014;12.052;2023-08-06T10:20:58;0.70;;;0.63;;
19038;SDS011;9652;49.014;12.052;2023-08-06T10:23:34;0.60;;;0.60;;
19038;SDS011;9652;49.014;12.052;2023-08-06T10:26:03;0.50;;;0.50;;
19038;SDS011;9652;49.014;12.052;2023-08-06T10:28:34;0.60;;;0.60;;
19038;SDS011;9652;49.014;12.052;2023-08-06T10:31:03;1.90;;;1.10;;
19038;SDS011;9652;49.014;12.052;2023-08-06T10:33:40;0.40;;;0.40;;
19038;SDS011;9652;49.014;12.052;2023-08-06T10:36:09;0.77;;;0.70;;
19038;SDS011;9652;49.014;12.052;2023-08-06T10:38:44;1.13;;;0.80;;
19038;SDS011;9652;49.014;12.052;2023-08-06T10:41:15;0.60;;;0.50;;
19038;SDS011;9652;49.014;12.052;2023-08-06T10:43:45;0.50;;;0.50;;
19038;SDS011;9652;49.014;12.052;2023-08-06T10:46:21;0.50;;;0.50;;
19038;SDS011;9652;49.014;12.052;2023-08-06T10:48:53;3.33;;;0.60;;
19038;SDS011;9652;49.014;12.052;2023-08-06T10:51:20;2.93;;;0.30;;
19038;SDS011;9652;49.014;12.052;2023-08-06T10:53:49;1.47;;;0.60;;
19038;SDS011;9652;49.014;12.052;2023-08-06T10:56:17;1.63;;;0.80;;
19038;SDS011;9652;49.014;12.052;2023-08-06T10:58:47;1.03;;;0.67;;
19038;SDS011;9652;49.014;12.052;2023-08-06T11:01:16;1.27;;;0.40;;
19038;SDS011;9652;49.014;12.052;2023-08-06T11:03:44;5.57;;;0.70;;
19038;SDS011;9652;49.014;12.052;2023-08-06T11:06:16;1.43;;;0.40;;
19038;SDS011;9652;49.014;12.052;2023-08-06T11:08:47;0.57;;;0.47;;
19038;SDS011;9652;49.014;12.052;2023-08-06T11:11:18;0.60;;;0.50;;
19038;SDS011;9652;49.014;12.052;2023-08-06T11:13:46;0.30;;;0.30;;
19038;SDS011;9652;49.014;12.052;2023-08-06T11:16:15;3.03;;;0.30;;
19038;SDS011;9652;49.014;12.052;2023-08-06T11:18:44;0.30;;;0.30;;
19038;SDS011;9652;49.014;12.052;2023-08-06T11:21:12;0.47;;;0.40;;
19038;SDS011;9652;49.014;12.052;2023-08-06T11:23:40;0.30;;;0.30;;
19038;SDS011;9652;49.014;12.052;2023-08-06T11:26:08;0.53;;;0.33;;
19038;SDS011;9652;49.014;12.052;2023-08-06T11:28:35;0.30;;;0.20;;
19038;SDS011;9652;49.014;12.052;2023-08-06T11:31:02;0.40;;;0.40;;
19038;SDS011;9652;49.014;12.052;2023-08-06T11:33:29;0.40;;;0.40;;
19038;SDS011;9652;49.014;12.052;2023-08-06T11:35:58;0.97;;;0.37;;
19038;SDS011;9652;49.014;12.052;2023-08-06T11:38:28;0.40;;;0.40;;
19038;SDS011;9652;49.014;12.052;2023-08-06T11:40:55;0.53;;;0.50;;
19038;SDS011;9652;49.014;12.052;2023-08-06T11:43:23;0.40;;;0.40;;
19038;SDS011;9652;49.014;12.052;2023-08-06T11:45:51;0.50;;;0.50;;
19038;SDS011;9652;49.014;12.052;2023-08-06T11:48:19;0.30;;;0.30;;
19038;SDS011;9652;49.014;12.052;2023-08-06T11:50:46;0.40;;;0.40;;
19038;SDS011;9652;49.014;12.052;2023-08-06T11:53:14;0.40;;;0.40;;
19038;SDS011;9652;49.014;12.052;2023-08-06T11:55:41;0.40;;;0.40;;
19038;SDS011;9652;49.014;12.052;2023-08-06T11:58:09;0.30;;;0.30;;
19038;SDS011;9652;49.014;12.052;2023-08-06T12:00:39;0.33;;;0.33;;
19038;SDS011;9652;49.014;12.052;2023-08-06T12:03:06;0.57;;;0.37;;
19038;SDS011;9652;49.014;12.052;2023-08-06T12:05:33;0.60;;;0.37;;
19038;SDS011;9652;49.014;12.052;2023-08-06T12:08:01;0.40;;;0.40;;
19038;SDS011;9652;49.014;12.052;2023-08-06T12:10:29;0.30;;;0.30;;
19038;SDS011;9652;49.014;12.052;2023-08-06T12:12:57;0.40;;;0.40;;
19038;SDS011;9652;49.014;12.052;2023-08-06T12:15:25;0.73;;;0.30;;
19038;SDS011;9652;49.014;12.052;2023-08-06T12:17:53;0.30;;;0.30;;
19038;SDS011;9652;49.014;12.052;2023-08-06T12:20:20;0.20;;;0.20;;
19038;SDS011;9652;49.014;12.052;2023-08-06T12:22:47;0.40;;;0.40;;
19038;SDS011;9652;49.014;12.052;2023-08-06T12:25:14;0.30;;;0.30;;
19038;SDS011;9652;49.014;12.052;2023-08-06T12:27:42;0.30;;;0.30;;
19038;SDS011;9652;49.014;12.052;2023-08-06T12:30:11;0.30;;;0.23;;
19038;SDS011;9652;49.014;12.052;2023-08-06T12:32:39;0.23;;;0.20;;
19038;SDS011;9652;49.014;12.052;2023-08-06T12:35:08;1.87;;;0.27;;
19038;SDS011;9652;49.014;12.052;2023-08-06T12:37:35;0.23;;;0.23;;
19038;SDS011;9652;49.014;12.052;2023-08-06T12:40:04;0.30;;;0.20;;
19038;SDS011;9652;49.014;12.052;2023-08-06T12:42:32;0.20;;;0.20;;
19038;SDS011;9652;49.014;12.052;2023-08-06T12:44:59;0.97;;;0.40;;
19038;SDS011;9652;49.014;12.052;2023-08-06T12:47:27;0.80;;;0.40;;
19038;SDS011;9652;49.014;12.052;2023-08-06T12:49:54;1.37;;;0.37;;
19038;SDS011;9652;49.014;12.052;2023-08-06T12:52:23;0.40;;;0.40;;
19038;SDS011;9652;49.014;12.052;2023-08-06T12:54:50;0.20;;;0.20;;
19038;SDS011;9652;49.014;12.052;2023-08-06T12:57:17;0.40;;;0.40;;
19038;SDS011;9652;49.014;12.052;2023-08-06T12:59:44;1.63;;;0.50;;
19038;SDS011;9652;49.014;12.052;2023-08-06T13:02:11;2.43;;;0.50;;
19038;SDS011;9652;49.014;12.052;2023-08-06T13:04:38;0.40;;;0.30;;
19038;SDS011;9652;49.014;12.052;2023-08-06T13:07:05;0.40;;;0.40;;
19038;SDS011;9652;49.014;12.052;2023-08-06T13:09:34;0.30;;;0.30;;
19038;SDS011;9652;49.014;12.052;2023-08-06T13:12:01;0.37;;;0.37;;
19038;SDS011;9652;49.014;12.052;2023-08-06T13:14:30;0.20;;;0.20;;
19038;SDS011;9652;49.014;12.052;2023-08-06T13:16:58;0.87;;;0.30;;
19038;SDS011;9652;49.014;12.052;2023-08-06T13:19:25;0.30;;;0.30;;
19038;SDS011;9652;49.014;12.052;2023-08-06T13:21:58;0.30;;;0.30;;
19038;SDS011;9652;49.014;12.052;2023-08-06T13:24:31;0.17;;;0.17;;
19038;SDS011;9652;49.014;12.052;2023-08-06T13:27:00;0.10;;;0.10;;
19038;SDS011;9652;49.014;12.052;2023-08-06T13:29:28;0.20;;;0.20;;
19038;SDS011;9652;49.014;12.052;2023-08-06T13:31:55;0.10;;;0.10;;
19038;SDS011;9652;49.014;12.052;2023-08-06T13:34:22;0.10;;;0.10;;
19038;SDS011;9652;49.014;12.052;2023-08-06T13:36:49;0.20;;;0.17;;
19038;SDS011;9652;49.014;12.052;2023-08-06T13:39:16;0.17;;;0.17;;
19038;SDS011;9652;49.014;12.052;2023-08-06T13:41:44;0.67;;;0.20;;
19038;SDS011;9652;49.014;12.052;2023-08-06T13:44:11;0.13;;;0.13;;
19038;SDS011;9652;49.014;12.052;2023-08-06T13:46:40;0.40;;;0.10;;
19038;SDS011;9652;49.014;12.052;2023-08-06T13:49:08;0.40;;;0.20;;
19038;SDS011;9652;49.014;12.052;2023-08-06T13:51:35;0.20;;;0.20;;
19038;SDS011;9652;49.014;12.052;2023-08-06T13:54:04;0.20;;;0.10;;
19038;SDS011;9652;49.014;12.052;2023-08-06T13:56:32;0.20;;;0.20;;
19038;SDS011;9652;49.014;12.052;2023-08-06T13:59:03;0.30;;;0.27;;
19038;SDS011;9652;49.014;12.052;2023-08-06T14:01:31;0.10;;;0.10;;
19038;SDS011;9652;49.014;12.052;2023-08-06T14:03:58;0.10;;;0.10;;
19038;SDS011;9652;49.014;12.052;2023-08-06T14:06:25;0.10;;;0.10;;
19038;SDS011;9652;49.014;12.052;2023-08-06T14:08:52;0.10;;;0.10;;
19038;SDS011;9652;49.014;12.052;2023-08-06T14:11:20;0.80;;;0.10;;
19038;SDS011;9652;49.014;12.052;2023-08-06T14:13:47;0.00;;;0.00;;
19038;SDS011;9652;49.014;12.052;2023-08-06T14:16:15;0.00;;;0.00;;
19038;SDS011;9652;49.014;12.052;2023-08-06T14:18:43;0.00;;;0.00;;
19038;SDS011;9652;49.014;12.052;2023-08-06T14:21:10;0.15;;;0.10;;
19038;SDS011;9652;49.014;12.052;2023-08-06T14:23:37;0.03;;;0.03;;
19038;SDS011;9652;49.014;12.052;2023-08-06T14:26:06;0.10;;;0.10;;
19038;SDS011;9652;49.014;12.052;2023-08-06T14:28:35;0.87;;;0.10;;
19038;SDS011;9652;49.014;12.052;2023-08-06T14:31:02;0.87;;;0.43;;
19038;SDS011;9652;49.014;12.052;2023-08-06T14:33:31;0.10;;;0.10;;
19038;SDS011;9652;49.014;12.052;2023-08-06T14:35:58;0.20;;;0.20;;
19038;SDS011;9652;49.014;12.052;2023-08-06T14:38:25;0.20;;;0.20;;
19038;SDS011;9652;49.014;12.052;2023-08-06T14:40:52;0.10;;;0.10;;
19038;SDS011;9652;49.014;12.052;2023-08-06T14:43:19;0.20;;;0.17;;
19038;SDS011;9652;49.014;12.052;2023-08-06T14:45:46;0.73;;;0.40;;
19038;SDS011;9652;49.014;12.052;2023-08-06T14:48:13;2.77;;;0.20;;
19038;SDS011;9652;49.014;12.052;2023-08-06T14:50:42;2.10;;;0.30;;
19038;SDS011;9652;49.014;12.052;2023-08-06T14:53:09;0.13;;;0.13;;